sensor_id;sensor_type;location;lat;lon;timestamp;pressure;altitude;pressure_sealevel;temperature;humidity
46506;BME280;32220;49.808;9.968;2024-02-28T08:34:09;99308.72;;;8.10;88.23
46506;BME280;32220;49.808;9.968;2024-02-28T08:36:37;99339.13;;;9.13;85.48
46506;BME280;32220;49.808;9.968;2024-02-28T08:39:04;99351.97;;;9.89;79.85
46506;BME280;32220;49.808;9.968;2024-02-28T08:41:33;99350.50;;;10.83;76.53
46506;BME280;32220;49.808;9.968;2024-02-28T08:44:01;99390.66;;;13.11;66.98
46506;BME280;32220;49.808;9.968;2024-02-28T08:46:28;99396.72;;;15.44;59.45
46506;BME280;32220;49.808;9.968;2024-02-28T08:48:56;99445.28;;;18.62;48.23
46506;BME280;32220;49.808;9.968;2024-02-28T08:51:25;99469.03;;;21.30;42.49
46506;BME280;32220;49.808;9.968;2024-02-28T08:53:53;99477.25;;;23.23;38.99
46506;BME280;32220;49.808;9.968;2024-02-28T08:56:21;99481.66;;;24.49;35.96
46506;BME280;32220;49.808;9.968;2024-02-28T08:58:49;99483.41;;;23.50;34.87
46506;BME280;32220;49.808;9.968;2024-02-28T09:01:16;99477.00;;;22.65;34.68
46506;BME280;32220;49.808;9.968;2024-02-28T09:03:44;99487.78;;;21.22;34.37
46506;BME280;32220;49.808;9.968;2024-02-28T09:06:11;99476.75;;;22.15;35.86
46506;BME280;32220;49.808;9.968;2024-02-28T09:09:00;99501.66;;;24.56;32.19
46506;BME280;32220;49.808;9.968;2024-02-28T09:11:27;99493.13;;;27.08;30.82
46506;BME280;32220;49.808;9.968;2024-02-28T09:13:55;99498.25;;;29.47;28.03
46506;BME280;32220;49.808;9.968;2024-02-28T09:16:22;99503.06;;;31.26;26.40
46506;BME280;32220;49.808;9.968;2024-02-28T09:18:50;99498.50;;;32.61;23.63
46506;BME280;32220;49.808;9.968;2024-02-28T09:21:17;99521.94;;;33.93;22.36
46506;BME280;32220;49.808;9.968;2024-02-28T09:23:45;99519.47;;;34.92;21.16
46506;BME280;32220;49.808;9.968;2024-02-28T09:26:15;99531.34;;;35.63;21.07
46506;BME280;32220;49.808;9.968;2024-02-28T09:28:43;99541.66;;;35.56;19.18
46506;BME280;32220;49.808;9.968;2024-02-28T09:31:11;99528.09;;;34.54;19.82
46506;BME280;32220;49.808;9.968;2024-02-28T09:33:38;99516.44;;;33.56;21.18
46506;BME280;32220;49.808;9.968;2024-02-28T09:36:06;99529.66;;;33.23;20.67
46506;BME280;32220;49.808;9.968;2024-02-28T09:38:34;99511.53;;;32.72;21.93
46506;BME280;32220;49.808;9.968;2024-02-28T09:41:02;99519.88;;;32.83;22.13
46506;BME280;32220;49.808;9.968;2024-02-28T09:43:32;99526.97;;;32.60;22.22
46506;BME280;32220;49.808;9.968;2024-02-28T09:46:04;99520.88;;;31.55;21.79
46506;BME280;32220;49.808;9.968;2024-02-28T09:48:33;99489.78;;;30.51;22.62
46506;BME280;32220;49.808;9.968;2024-02-28T09:51:00;99498.66;;;28.88;24.41
46506;BME280;32220;49.808;9.968;2024-02-28T09:53:28;99490.53;;;27.15;25.25
46506;BME280;32220;49.808;9.968;2024-02-28T09:55:55;99481.63;;;25.61;26.98
46506;BME280;32220;49.808;9.968;2024-02-28T09:58:23;99469.13;;;24.48;28.79
46506;BME280;32220;49.808;9.968;2024-02-28T10:00:59;99477.22;;;24.89;29.03
46506;BME280;32220;49.808;9.968;2024-02-28T10:03:30;99479.13;;;26.59;26.48
46506;BME280;32220;49.808;9.968;2024-02-28T10:05:58;99498.53;;;28.33;24.82
46506;BME280;32220;49.808;9.968;2024-02-28T10:08:25;99492.13;;;29.86;22.97
46506;BME280;32220;49.808;9.968;2024-02-28T10:10:53;99510.97;;;31.67;21.88
46506;BME280;32220;49.808;9.968;2024-02-28T10:13:22;99496.59;;;33.36;20.69
46506;BME280;32220;49.808;9.968;2024-02-28T10:15:49;99516.44;;;34.11;20.63
46506;BME280;32220;49.808;9.968;2024-02-28T10:18:20;99517.81;;;34.02;20.53
46506;BME280;32220;49.808;9.968;2024-02-28T10:20:48;99526.50;;;34.17;19.84
46506;BME280;32220;49.808;9.968;2024-02-28T10:23:16;99536.50;;;35.36;18.71
46506;BME280;32220;49.808;9.968;2024-02-28T10:25:45;99541.94;;;36.46;18.21
46506;BME280;32220;49.808;9.968;2024-02-28T10:28:12;99529.41;;;37.17;17.63
46506;BME280;32220;49.808;9.968;2024-02-28T10:30:41;99540.47;;;37.56;17.54
46506;BME280;32220;49.808;9.968;2024-02-28T10:33:12;99549.84;;;37.71;17.27
46506;BME280;32220;49.808;9.968;2024-02-28T10:35:43;99535.59;;;37.80;16.82
46506;BME280;32220;49.808;9.968;2024-02-28T10:38:12;99535.97;;;37.88;16.62
46506;BME280;32220;49.808;9.968;2024-02-28T10:40:40;99555.00;;;38.28;16.31
46506;BME280;32220;49.808;9.968;2024-02-28T10:43:22;99549.16;;;38.25;16.23
46506;BME280;32220;49.808;9.968;2024-02-28T10:45:50;99549.47;;;38.28;16.55
46506;BME280;32220;49.808;9.968;2024-02-28T10:48:19;99557.75;;;37.63;15.74
46506;BME280;32220;49.808;9.968;2024-02-28T10:50:50;99541.47;;;37.50;16.10
46506;BME280;32220;49.808;9.968;2024-02-28T10:53:22;99550.53;;;37.12;16.20
46506;BME280;32220;49.808;9.968;2024-02-28T10:55:51;99550.53;;;36.78;16.79
46506;BME280;32220;49.808;9.968;2024-02-28T10:58:24;99550.94;;;36.02;16.39
46506;BME280;32220;49.808;9.968;2024-02-28T11:00:52;99559.25;;;35.90;16.20
46506;BME280;32220;49.808;9.968;2024-02-28T11:03:20;99541.28;;;35.76;17.06
46506;BME280;32220;49.808;9.968;2024-02-28T11:05:50;99559.94;;;35.74;16.21
46506;BME280;32220;49.808;9.968;2024-02-28T11:08:22;99563.34;;;35.52;16.16
46506;BME280;32220;49.808;9.968;2024-02-28T11:10:55;99566.53;;;35.14;16.69
46506;BME280;32220;49.808;9.968;2024-02-28T11:13:23;99565.34;;;35.10;16.90
46506;BME280;32220;49.808;9.968;2024-02-28T11:15:51;99548.22;;;35.67;16.77
46506;BME280;32220;49.808;9.968;2024-02-28T11:18:19;99550.09;;;36.41;16.04
46506;BME280;32220;49.808;9.968;2024-02-28T11:20:46;99578.78;;;36.68;15.15
46506;BME280;32220;49.808;9.968;2024-02-28T11:23:18;99521.75;;;35.77;16.54
46506;BME280;32220;49.808;9.968;2024-02-28T11:25:46;99536.22;;;35.96;16.93
46506;BME280;32220;49.808;9.968;2024-02-28T11:28:14;99542.28;;;36.66;16.22
46506;BME280;32220;49.808;9.968;2024-02-28T11:30:42;99561.28;;;37.08;15.49
46506;BME280;32220;49.808;9.968;2024-02-28T11:33:10;99543.03;;;37.07;16.17
46506;BME280;32220;49.808;9.968;2024-02-28T11:35:37;99552.91;;;37.03;15.05
46506;BME280;32220;49.808;9.968;2024-02-28T11:38:06;99557.88;;;36.73;16.29
46506;BME280;32220;49.808;9.968;2024-02-28T11:40:37;99535.31;;;35.79;16.92
46506;BME280;32220;49.808;9.968;2024-02-28T11:43:05;99524.50;;;34.84;17.55
46506;BME280;32220;49.808;9.968;2024-02-28T11:45:39;99511.94;;;33.98;18.54
46506;BME280;32220;49.808;9.968;2024-02-28T11:48:07;99519.53;;;33.84;18.71
46506;BME280;32220;49.808;9.968;2024-02-28T11:50:37;99533.25;;;34.63;17.85
46506;BME280;32220;49.808;9.968;2024-02-28T11:53:05;99539.22;;;35.94;16.73
46506;BME280;32220;49.808;9.968;2024-02-28T11:55:33;99552.00;;;37.31;16.03
46506;BME280;32220;49.808;9.968;2024-02-28T11:58:02;99539.44;;;38.49;15.38
46506;BME280;32220;49.808;9.968;2024-02-28T12:00:29;99538.16;;;39.53;15.17
46506;BME280;32220;49.808;9.968;2024-02-28T12:03:04;99540.50;;;39.76;13.99
46506;BME280;32220;49.808;9.968;2024-02-28T12:05:32;99538.56;;;40.44;13.89
46506;BME280;32220;49.808;9.968;2024-02-28T12:07:58;99561.44;;;40.97;12.86
46506;BME280;32220;49.808;9.968;2024-02-28T12:10:26;99546.75;;;41.27;13.35
46506;BME280;32220;49.808;9.968;2024-02-28T12:12:58;99549.25;;;41.28;12.67
46506;BME280;32220;49.808;9.968;2024-02-28T12:15:30;99550.34;;;41.22;12.65
46506;BME280;32220;49.808;9.968;2024-02-28T12:17:57;99536.09;;;40.42;12.90
46506;BME280;32220;49.808;9.968;2024-02-28T12:20:25;99533.00;;;39.71;14.33
46506;BME280;32220;49.808;9.968;2024-02-28T12:22:52;99505.03;;;39.36;15.11
46506;BME280;32220;49.808;9.968;2024-02-28T12:25:20;99521.94;;;39.34;14.59
46506;BME280;32220;49.808;9.968;2024-02-28T12:27:48;99510.47;;;39.58;14.34
46506;BME280;32220;49.808;9.968;2024-02-28T12:30:16;99522.47;;;40.46;13.84
46506;BME280;32220;49.808;9.968;2024-02-28T12:32:45;99520.84;;;40.65;12.70
46506;BME280;32220;49.808;9.968;2024-02-28T12:35:12;99512.84;;;40.89;13.99
46506;BME280;32220;49.808;9.968;2024-02-28T12:37:40;99508.03;;;41.50;13.36
46506;BME280;32220;49.808;9.968;2024-02-28T12:40:08;99498.44;;;41.92;13.55
46506;BME280;32220;49.808;9.968;2024-02-28T12:42:36;99501.75;;;42.04;13.10
46506;BME280;32220;49.808;9.968;2024-02-28T12:45:04;99508.94;;;42.15;12.98
46506;BME280;32220;49.808;9.968;2024-02-28T12:47:32;99506.75;;;42.07;12.18
46506;BME280;32220;49.808;9.968;2024-02-28T12:50:01;99508.31;;;41.64;12.51
46506;BME280;32220;49.808;9.968;2024-02-28T12:52:29;99494.47;;;40.93;12.67
46506;BME280;32220;49.808;9.968;2024-02-28T12:54:56;99476.41;;;40.60;13.87
46506;BME280;32220;49.808;9.968;2024-02-28T12:57:24;99476.97;;;40.67;13.72
46506;BME280;32220;49.808;9.968;2024-02-28T12:59:52;99481.44;;;40.83;13.83
46506;BME280;32220;49.808;9.968;2024-02-28T13:02:19;99485.31;;;40.72;13.29
46506;BME280;32220;49.808;9.968;2024-02-28T13:04:48;99465.22;;;40.25;13.30
46506;BME280;32220;49.808;9.968;2024-02-28T13:07:17;99465.78;;;38.43;13.82
46506;BME280;32220;49.808;9.968;2024-02-28T13:09:47;99464.13;;;36.94;14.50
46506;BME280;32220;49.808;9.968;2024-02-28T13:12:15;99454.47;;;36.63;15.23
46506;BME280;32220;49.808;9.968;2024-02-28T13:14:42;99449.53;;;36.65;14.44
46506;BME280;32220;49.808;9.968;2024-02-28T13:17:10;99458.69;;;36.83;14.87
46506;BME280;32220;49.808;9.968;2024-02-28T13:19:37;99448.16;;;36.80;14.77
46506;BME280;32220;49.808;9.968;2024-02-28T13:22:05;99461.66;;;36.19;14.79
46506;BME280;32220;49.808;9.968;2024-02-28T13:24:35;99451.31;;;35.98;15.71
46506;BME280;32220;49.808;9.968;2024-02-28T13:27:03;99448.22;;;36.23;15.22
46506;BME280;32220;49.808;9.968;2024-02-28T13:29:31;99432.84;;;35.98;14.78
46506;BME280;32220;49.808;9.968;2024-02-28T13:31:58;99439.09;;;35.54;15.11
46506;BME280;32220;49.808;9.968;2024-02-28T13:34:26;99436.75;;;35.22;15.54
46506;BME280;32220;49.808;9.968;2024-02-28T13:36:53;99447.19;;;35.32;15.89
46506;BME280;32220;49.808;9.968;2024-02-28T13:39:21;99445.47;;;35.43;16.36
46506;BME280;32220;49.808;9.968;2024-02-28T13:41:51;99416.66;;;35.34;16.58
46506;BME280;32220;49.808;9.968;2024-02-28T13:44:19;99426.69;;;35.16;15.60
46506;BME280;32220;49.808;9.968;2024-02-28T13:46:46;99434.38;;;34.91;15.65
46506;BME280;32220;49.808;9.968;2024-02-28T13:49:14;99424.72;;;34.35;16.39
46506;BME280;32220;49.808;9.968;2024-02-28T13:51:42;99428.47;;;34.11;16.10
46506;BME280;32220;49.808;9.968;2024-02-28T13:54:10;99428.47;;;34.11;16.34
46506;BME280;32220;49.808;9.968;2024-02-28T13:56:38;99415.75;;;33.98;16.36
46506;BME280;32220;49.808;9.968;2024-02-28T13:59:07;99412.34;;;33.84;15.90
46506;BME280;32220;49.808;9.968;2024-02-28T14:01:36;99420.38;;;33.86;16.39
46506;BME280;32220;49.808;9.968;2024-02-28T14:04:03;99424.47;;;33.77;15.70
46506;BME280;32220;49.808;9.968;2024-02-28T14:06:31;99408.50;;;33.37;16.16
46506;BME280;32220;49.808;9.968;2024-02-28T14:08:58;99411.00;;;33.39;16.57
46506;BME280;32220;49.808;9.968;2024-02-28T14:11:26;99403.25;;;33.36;16.92
46506;BME280;32220;49.808;9.968;2024-02-28T14:13:53;99392.78;;;33.26;16.41
46506;BME280;32220;49.808;9.968;2024-02-28T14:16:23;99391.13;;;33.25;16.91
46506;BME280;32220;49.808;9.968;2024-02-28T14:18:51;99393.59;;;33.27;17.02
46506;BME280;32220;49.808;9.968;2024-02-28T14:21:19;99382.16;;;33.11;17.11
46506;BME280;32220;49.808;9.968;2024-02-28T14:23:48;99382.63;;;33.08;16.80
46506;BME280;32220;49.808;9.968;2024-02-28T14:26:16;99367.59;;;32.93;17.46
46506;BME280;32220;49.808;9.968;2024-02-28T14:28:43;99388.56;;;32.87;17.00
46506;BME280;32220;49.808;9.968;2024-02-28T14:31:11;99376.13;;;32.60;17.21
46506;BME280;32220;49.808;9.968;2024-02-28T14:33:40;99374.28;;;32.29;17.28
46506;BME280;32220;49.808;9.968;2024-02-28T14:36:07;99376.19;;;31.97;17.16
46506;BME280;32220;49.808;9.968;2024-02-28T14:38:35;99370.06;;;31.57;17.63
46506;BME280;32220;49.808;9.968;2024-02-28T14:41:03;99390.81;;;31.33;17.58
46506;BME280;32220;49.808;9.968;2024-02-28T14:43:30;99364.88;;;30.38;18.11
46506;BME280;32220;49.808;9.968;2024-02-28T14:45:58;99369.66;;;29.29;18.09
46506;BME280;32220;49.808;9.968;2024-02-28T14:48:25;99372.91;;;28.21;18.80
46506;BME280;32220;49.808;9.968;2024-02-28T14:50:55;99380.78;;;27.08;20.12
46506;BME280;32220;49.808;9.968;2024-02-28T14:53:23;99372.88;;;26.39;20.79
46506;BME280;32220;49.808;9.968;2024-02-28T14:55:51;99346.28;;;25.35;21.40
46506;BME280;32220;49.808;9.968;2024-02-28T14:58:19;99357.81;;;24.35;22.21
46506;BME280;32220;49.808;9.968;2024-02-28T15:00:46;99350.25;;;23.40;22.82
46506;BME280;32220;49.808;9.968;2024-02-28T15:03:14;99310.63;;;22.38;24.04
46506;BME280;32220;49.808;9.968;2024-02-28T15:05:42;99348.56;;;22.11;24.55
46506;BME280;32220;49.808;9.968;2024-02-28T15:08:12;99348.66;;;21.48;25.44
46506;BME280;32220;49.808;9.968;2024-02-28T15:10:40;99346.13;;;20.92;26.25
46506;BME280;32220;49.808;9.968;2024-02-28T15:13:07;99317.72;;;20.42;26.69
46506;BME280;32220;49.808;9.968;2024-02-28T15:15:35;99339.56;;;20.20;27.26
46506;BME280;32220;49.808;9.968;2024-02-28T15:18:03;99321.81;;;19.71;27.57
46506;BME280;32220;49.808;9.968;2024-02-28T15:20:30;99335.63;;;19.47;27.98
46506;BME280;32220;49.808;9.968;2024-02-28T15:22:58;99326.78;;;19.07;28.42
46506;BME280;32220;49.808;9.968;2024-02-28T15:25:28;99336.06;;;18.83;28.59
46506;BME280;32220;49.808;9.968;2024-02-28T15:27:55;99329.72;;;18.54;29.05
46506;BME280;32220;49.808;9.968;2024-02-28T15:30:23;99310.03;;;18.13;29.21
46506;BME280;32220;49.808;9.968;2024-02-28T15:32:50;99288.59;;;17.72;29.49
46506;BME280;32220;49.808;9.968;2024-02-28T15:35:18;99309.22;;;17.60;30.05
46506;BME280;32220;49.808;9.968;2024-02-28T15:37:47;99312.22;;;17.35;30.36
46506;BME280;32220;49.808;9.968;2024-02-28T15:40:14;99312.31;;;17.12;30.29
46506;BME280;32220;49.808;9.968;2024-02-28T15:42:44;99307.38;;;16.85;31.07
46506;BME280;32220;49.808;9.968;2024-02-28T15:45:11;99310.44;;;16.70;31.25
46506;BME280;32220;49.808;9.968;2024-02-28T15:47:40;99311.16;;;16.49;31.24
46506;BME280;32220;49.808;9.968;2024-02-28T15:50:08;99289.66;;;16.29;32.37
46506;BME280;32220;49.808;9.968;2024-02-28T15:52:36;99275.06;;;15.99;33.16
46506;BME280;32220;49.808;9.968;2024-02-28T15:55:04;99281.84;;;15.92;33.77
46506;BME280;32220;49.808;9.968;2024-02-28T15:57:32;99288.13;;;15.69;34.22
46506;BME280;32220;49.808;9.968;2024-02-28T16:00:01;99242.28;;;15.16;34.34
46506;BME280;32220;49.808;9.968;2024-02-28T16:02:38;99292.06;;;15.28;34.46
46506;BME280;32220;49.808;9.968;2024-02-28T16:05:06;99294.91;;;15.14;34.78
46506;BME280;32220;49.808;9.968;2024-02-28T16:07:34;99294.78;;;14.92;34.84
46506;BME280;32220;49.808;9.968;2024-02-28T16:10:01;99284.09;;;14.68;35.16
46506;BME280;32220;49.808;9.968;2024-02-28T16:12:29;99298.50;;;14.65;35.63
46506;BME280;32220;49.808;9.968;2024-02-28T16:14:56;99296.81;;;14.52;35.77
46506;BME280;32220;49.808;9.968;2024-02-28T16:17:25;99294.16;;;14.39;36.47
46506;BME280;32220;49.808;9.968;2024-02-28T16:19:53;99284.16;;;14.17;36.38
46506;BME280;32220;49.808;9.968;2024-02-28T16:22:21;99296.19;;;14.10;36.50
46506;BME280;32220;49.808;9.968;2024-02-28T16:24:48;99287.78;;;13.91;37.05
46506;BME280;32220;49.808;9.968;2024-02-28T16:27:16;99270.75;;;13.68;37.85
46506;BME280;32220;49.808;9.968;2024-02-28T16:29:43;99288.63;;;13.66;37.66
46506;BME280;32220;49.808;9.968;2024-02-28T16:32:11;99292.75;;;13.45;37.24
46506;BME280;32220;49.808;9.968;2024-02-28T16:34:40;99287.69;;;13.27;37.08
46506;BME280;32220;49.808;9.968;2024-02-28T16:37:07;99290.31;;;13.15;37.34
46506;BME280;32220;49.808;9.968;2024-02-28T16:39:35;99308.97;;;13.13;37.72
46506;BME280;32220;49.808;9.968;2024-02-28T16:42:03;99296.72;;;12.98;38.48
46506;BME280;32220;49.808;9.968;2024-02-28T16:44:30;99306.31;;;12.86;38.26
46506;BME280;32220;49.808;9.968;2024-02-28T16:47:01;99298.88;;;12.65;38.25
46506;BME280;32220;49.808;9.968;2024-02-28T16:49:28;99315.75;;;12.64;38.25
46506;BME280;32220;49.808;9.968;2024-02-28T16:51:57;99315.69;;;12.51;38.63
46506;BME280;32220;49.808;9.968;2024-02-28T16:54:25;99303.09;;;12.26;39.01
46506;BME280;32220;49.808;9.968;2024-02-28T16:56:52;99316.56;;;12.23;39.30
46506;BME280;32220;49.808;9.968;2024-02-28T16:59:19;99320.00;;;12.11;39.57
46506;BME280;32220;49.808;9.968;2024-02-28T17:01:47;99314.66;;;11.97;39.99
46506;BME280;32220;49.808;9.968;2024-02-28T17:04:16;99315.50;;;11.83;40.34
46506;BME280;32220;49.808;9.968;2024-02-28T17:06:43;99313.63;;;11.69;39.94
46506;BME280;32220;49.808;9.968;2024-02-28T17:09:12;99306.41;;;11.57;40.38
46506;BME280;32220;49.808;9.968;2024-02-28T17:11:40;99320.31;;;11.46;40.57
46506;BME280;32220;49.808;9.968;2024-02-28T17:14:07;99298.03;;;11.19;40.55
46506;BME280;32220;49.808;9.968;2024-02-28T17:16:35;99306.16;;;11.16;40.39
46506;BME280;32220;49.808;9.968;2024-02-28T17:19:03;99327.38;;;11.16;40.58
46506;BME280;32220;49.808;9.968;2024-02-28T17:21:30;99308.44;;;10.92;41.34
46506;BME280;32220;49.808;9.968;2024-02-28T17:23:59;99323.31;;;10.95;42.15
46506;BME280;32220;49.808;9.968;2024-02-28T17:26:28;99304.25;;;10.72;42.08
46506;BME280;32220;49.808;9.968;2024-02-28T17:28:56;99326.38;;;10.71;42.92
46506;BME280;32220;49.808;9.968;2024-02-28T17:31:24;99326.13;;;10.60;42.62
46506;BME280;32220;49.808;9.968;2024-02-28T17:33:51;99323.81;;;10.54;42.98
46506;BME280;32220;49.808;9.968;2024-02-28T17:36:19;99324.16;;;10.48;43.58
46506;BME280;32220;49.808;9.968;2024-02-28T17:38:46;99320.97;;;10.41;44.38
46506;BME280;32220;49.808;9.968;2024-02-28T17:41:13;99305.16;;;10.24;43.97
46506;BME280;32220;49.808;9.968;2024-02-28T17:43:42;99325.28;;;10.27;43.57
46506;BME280;32220;49.808;9.968;2024-02-28T17:46:10;99326.66;;;10.18;44.11
46506;BME280;32220;49.808;9.968;2024-02-28T17:48:38;99326.97;;;10.12;44.43
46506;BME280;32220;49.808;9.968;2024-02-28T17:51:07;99318.34;;;9.91;44.09
46506;BME280;32220;49.808;9.968;2024-02-28T17:53:34;99339.06;;;10.00;44.14
46506;BME280;32220;49.808;9.968;2024-02-28T17:56:02;99317.28;;;9.78;44.43
46506;BME280;32220;49.808;9.968;2024-02-28T17:58:32;99343.34;;;9.86;44.05
46506;BME280;32220;49.808;9.968;2024-02-28T18:01:01;99343.72;;;9.78;45.01
46506;BME280;32220;49.808;9.968;2024-02-28T18:03:31;99333.47;;;9.72;45.52
46506;BME280;32220;49.808;9.968;2024-02-28T18:05:59;99331.13;;;9.66;45.66
46506;BME280;32220;49.808;9.968;2024-02-28T18:08:27;99334.09;;;9.60;45.27
46506;BME280;32220;49.808;9.968;2024-02-28T18:10:54;99335.31;;;9.53;45.53
46506;BME280;32220;49.808;9.968;2024-02-28T18:13:22;99321.19;;;9.36;45.57
46506;BME280;32220;49.808;9.968;2024-02-28T18:15:49;99338.75;;;9.38;45.74
46506;BME280;32220;49.808;9.968;2024-02-28T18:18:18;99333.69;;;9.33;46.65
46506;BME280;32220;49.808;9.968;2024-02-28T18:20:46;99327.94;;;9.25;46.63
46506;BME280;32220;49.808;9.968;2024-02-28T18:23:13;99342.16;;;9.22;46.39
46506;BME280;32220;49.808;9.968;2024-02-28T18:25:41;99311.34;;;9.04;48.69
46506;BME280;32220;49.808;9.968;2024-02-28T18:28:08;99302.66;;;9.02;49.42
46506;BME280;32220;49.808;9.968;2024-02-28T18:30:36;99326.97;;;9.09;48.99
46506;BME280;32220;49.808;9.968;2024-02-28T18:33:04;99323.69;;;9.04;49.21
46506;BME280;32220;49.808;9.968;2024-02-28T18:35:33;99320.44;;;8.98;49.72
46506;BME280;32220;49.808;9.968;2024-02-28T18:38:03;99311.88;;;8.93;50.56
46506;BME280;32220;49.808;9.968;2024-02-28T18:40:31;99311.47;;;8.84;49.88
46506;BME280;32220;49.808;9.968;2024-02-28T18:42:59;99322.75;;;8.87;49.34
46506;BME280;32220;49.808;9.968;2024-02-28T18:45:26;99329.88;;;8.85;49.48
46506;BME280;32220;49.808;9.968;2024-02-28T18:47:54;99327.63;;;8.78;50.18
46506;BME280;32220;49.808;9.968;2024-02-28T18:50:21;99326.75;;;8.77;50.42
46506;BME280;32220;49.808;9.968;2024-02-28T18:52:51;99312.84;;;8.74;52.19
46506;BME280;32220;49.808;9.968;2024-02-28T18:55:19;99314.69;;;8.72;52.34
46506;BME280;32220;49.808;9.968;2024-02-28T18:57:50;99320.03;;;8.70;51.61
46506;BME280;32220;49.808;9.968;2024-02-28T19:00:21;99315.19;;;8.61;51.61
46506;BME280;32220;49.808;9.968;2024-02-28T19:02:49;99330.91;;;8.64;52.70
46506;BME280;32220;49.808;9.968;2024-02-28T19:05:17;99321.06;;;8.49;51.77
46506;BME280;32220;49.808;9.968;2024-02-28T19:07:44;99318.34;;;8.50;54.10
46506;BME280;32220;49.808;9.968;2024-02-28T19:10:14;99331.31;;;8.55;53.42
46506;BME280;32220;49.808;9.968;2024-02-28T19:12:41;99324.50;;;8.51;55.96
46506;BME280;32220;49.808;9.968;2024-02-28T19:15:10;99334.19;;;8.50;55.41
46506;BME280;32220;49.808;9.968;2024-02-28T19:17:37;99328.06;;;8.50;56.87
46506;BME280;32220;49.808;9.968;2024-02-28T19:20:06;99313.56;;;8.40;58.17
46506;BME280;32220;49.808;9.968;2024-02-28T19:22:35;99329.91;;;8.48;56.63
46506;BME280;32220;49.808;9.968;2024-02-28T19:25:03;99302.50;;;8.32;58.28
46506;BME280;32220;49.808;9.968;2024-02-28T19:27:32;99321.75;;;8.34;57.42
46506;BME280;32220;49.808;9.968;2024-02-28T19:29:59;99326.78;;;8.40;59.29
46506;BME280;32220;49.808;9.968;2024-02-28T19:32:27;99326.91;;;8.37;60.36
46506;BME280;32220;49.808;9.968;2024-02-28T19:34:54;99328.75;;;8.35;61.46
46506;BME280;32220;49.808;9.968;2024-02-28T19:37:22;99338.56;;;8.31;60.25
46506;BME280;32220;49.808;9.968;2024-02-28T19:39:50;99334.44;;;8.25;60.33
46506;BME280;32220;49.808;9.968;2024-02-28T19:42:34;99286.88;;;7.88;61.72
46506;BME280;32220;49.808;9.968;2024-02-28T19:45:03;99329.53;;;8.16;63.09
46506;BME280;32220;49.808;9.968;2024-02-28T19:47:30;99338.53;;;8.12;61.80
46506;BME280;32220;49.808;9.968;2024-02-28T19:49:58;99347.50;;;8.08;61.16
46506;BME280;32220;49.808;9.968;2024-02-28T19:52:26;99309.69;;;7.89;61.95
46506;BME280;32220;49.808;9.968;2024-02-28T19:54:54;99326.31;;;7.91;62.12
46506;BME280;32220;49.808;9.968;2024-02-28T19:57:21;99336.66;;;7.96;63.54
46506;BME280;32220;49.808;9.968;2024-02-28T19:59:51;99334.22;;;7.91;64.52
46506;BME280;32220;49.808;9.968;2024-02-28T20:02:19;99340.50;;;7.88;63.40
46506;BME280;32220;49.808;9.968;2024-02-28T20:04:49;99339.81;;;7.83;63.50
46506;BME280;32220;49.808;9.968;2024-02-28T20:07:16;99349.56;;;7.81;62.85
46506;BME280;32220;49.808;9.968;2024-02-28T20:09:44;99332.63;;;7.67;63.27
46506;BME280;32220;49.808;9.968;2024-02-28T20:12:11;99277.63;;;7.39;65.37
46506;BME280;32220;49.808;9.968;2024-02-28T20:14:39;99321.16;;;7.68;67.44
46506;BME280;32220;49.808;9.968;2024-02-28T20:17:11;99327.44;;;7.65;66.99
46506;BME280;32220;49.808;9.968;2024-02-28T20:19:40;99324.16;;;7.60;69.52
46506;BME280;32220;49.808;9.968;2024-02-28T20:22:09;99326.31;;;7.50;67.01
46506;BME280;32220;49.808;9.968;2024-02-28T20:24:37;99349.13;;;7.51;65.80
46506;BME280;32220;49.808;9.968;2024-02-28T20:27:05;99306.81;;;7.34;67.50
46506;BME280;32220;49.808;9.968;2024-02-28T20:29:32;99338.19;;;7.40;67.12
46506;BME280;32220;49.808;9.968;2024-02-28T20:31:59;99349.69;;;7.38;67.35
46506;BME280;32220;49.808;9.968;2024-02-28T20:34:29;99336.81;;;7.30;68.25
46506;BME280;32220;49.808;9.968;2024-02-28T20:36:56;99345.69;;;7.29;67.50
46506;BME280;32220;49.808;9.968;2024-02-28T20:39:24;99346.66;;;7.27;67.20
46506;BME280;32220;49.808;9.968;2024-02-28T20:41:51;99335.50;;;7.20;67.61
46506;BME280;32220;49.808;9.968;2024-02-28T20:44:19;99345.31;;;7.16;67.35
46506;BME280;32220;49.808;9.968;2024-02-28T20:46:46;99324.00;;;7.01;67.36
46506;BME280;32220;49.808;9.968;2024-02-28T20:49:14;99346.53;;;7.08;68.46
46506;BME280;32220;49.808;9.968;2024-02-28T20:51:43;99335.28;;;7.04;69.41
46506;BME280;32220;49.808;9.968;2024-02-28T20:54:10;99342.44;;;7.01;69.14
46506;BME280;32220;49.808;9.968;2024-02-28T20:56:37;99333.75;;;6.99;69.34
46506;BME280;32220;49.808;9.968;2024-02-28T20:59:07;99281.66;;;6.63;69.83
46506;BME280;32220;49.808;9.968;2024-02-28T21:01:34;99334.13;;;6.90;70.29
46506;BME280;32220;49.808;9.968;2024-02-28T21:04:02;99347.28;;;6.90;69.56
46506;BME280;32220;49.808;9.968;2024-02-28T21:06:31;99328.34;;;6.80;70.47
46506;BME280;32220;49.808;9.968;2024-02-28T21:09:00;99338.09;;;6.78;70.80
46506;BME280;32220;49.808;9.968;2024-02-28T21:11:27;99327.19;;;6.65;70.78
46506;BME280;32220;49.808;9.968;2024-02-28T21:13:54;99351.53;;;6.70;70.51
46506;BME280;32220;49.808;9.968;2024-02-28T21:16:22;99353.38;;;6.68;69.46
46506;BME280;32220;49.808;9.968;2024-02-28T21:18:50;99348.72;;;6.53;68.52
46506;BME280;32220;49.808;9.968;2024-02-28T21:21:19;99348.81;;;6.50;68.02
46506;BME280;32220;49.808;9.968;2024-02-28T21:23:48;99342.22;;;6.40;68.07
46506;BME280;32220;49.808;9.968;2024-02-28T21:26:17;99325.91;;;6.30;69.32
46506;BME280;32220;49.808;9.968;2024-02-28T21:28:44;99347.78;;;6.31;68.20
46506;BME280;32220;49.808;9.968;2024-02-28T21:31:12;99356.38;;;6.36;67.97
46506;BME280;32220;49.808;9.968;2024-02-28T21:33:39;99354.78;;;6.32;68.23
46506;BME280;32220;49.808;9.968;2024-02-28T21:36:07;99331.56;;;6.20;69.90
46506;BME280;32220;49.808;9.968;2024-02-28T21:38:35;99331.44;;;6.23;71.03
46506;BME280;32220;49.808;9.968;2024-02-28T21:41:03;99327.00;;;6.25;72.82